createdAt,value
2018-06-23T00:03:59.244Z,2.00
2018-06-23T00:09:03.150Z,1.80
2018-06-23T00:14:07.059Z,1.60
2018-06-23T00:19:10.838Z,1.97
2018-06-23T00:24:14.961Z,1.87
2018-06-23T00:29:18.663Z,2.10
2018-06-23T00:34:22.325Z,1.80
2018-06-23T00:39:26.400Z,2.03
2018-06-23T00:44:30.168Z,1.60
2018-06-23T00:49:33.908Z,1.67
2018-06-23T00:54:37.677Z,1.60
2018-06-23T00:59:43.683Z,2.10
2018-06-23T01:04:47.545Z,2.43
2018-06-23T01:09:51.329Z,1.97
2018-06-23T01:14:55.036Z,1.80
2018-06-23T01:19:58.738Z,2.10
2018-06-23T01:25:02.532Z,2.00
2018-06-23T01:30:08.221Z,1.77
2018-06-23T01:35:12.032Z,1.80
2018-06-23T01:40:15.830Z,1.90
2018-06-23T01:45:19.527Z,2.30
2018-06-23T01:50:23.620Z,2.10
2018-06-23T01:55:31.186Z,1.83
2018-06-23T02:00:35.485Z,2.30
2018-06-23T02:05:40.677Z,1.80
2018-06-23T02:10:44.366Z,2.07
2018-06-23T02:15:55.306Z,1.80
2018-06-23T02:21:04.204Z,1.80
2018-06-23T02:26:13.166Z,2.10
2018-06-23T02:31:23.317Z,2.10
2018-06-23T02:36:28.838Z,2.00
2018-06-23T02:41:32.540Z,2.17
2018-06-23T02:46:37.344Z,2.07
2018-06-23T02:51:41.028Z,2.07
2018-06-23T02:56:44.360Z,2.03
2018-06-23T03:09:27.436Z,1.90
2018-06-23T03:14:31.822Z,2.10
2018-06-23T03:19:36.145Z,2.17
2018-06-23T03:24:39.797Z,2.20
2018-06-23T03:29:43.595Z,2.20
2018-06-23T03:34:47.248Z,1.80
2018-06-23T03:39:50.895Z,1.97
2018-06-23T03:44:55.604Z,2.07
2018-06-23T03:50:00.126Z,2.20
2018-06-23T03:55:03.949Z,2.07
2018-06-23T04:00:07.676Z,2.47
2018-06-23T04:05:11.706Z,2.10
2018-06-23T04:10:15.617Z,2.50
2018-06-23T04:15:22.168Z,1.90
2018-06-23T04:20:25.863Z,2.50
2018-06-23T04:25:29.559Z,2.43
2018-06-23T04:30:33.260Z,2.03
2018-06-23T04:35:38.222Z,2.03
2018-06-23T04:40:42.798Z,2.40
2018-06-23T04:45:46.491Z,2.30
2018-06-23T04:50:50.211Z,2.57
2018-06-23T04:55:54.217Z,2.30
2018-06-23T05:01:03.459Z,2.47
2018-06-23T05:06:07.852Z,2.20
2018-06-23T05:11:12.620Z,2.27
2018-06-23T05:16:18.829Z,2.33
2018-06-23T05:21:22.776Z,2.33
2018-06-23T05:26:26.770Z,2.67
2018-06-23T05:31:30.740Z,2.47
2018-06-23T05:36:34.560Z,2.43
2018-06-23T05:41:38.638Z,3.27
2018-06-23T05:46:42.814Z,2.80
2018-06-23T05:51:46.553Z,2.20
2018-06-23T05:56:51.460Z,2.30
2018-06-23T06:01:55.882Z,2.23
2018-06-23T06:07:02.276Z,2.10
2018-06-23T06:12:07.663Z,2.30
2018-06-23T06:17:22.269Z,2.60
2018-06-23T06:22:27.226Z,2.43
2018-06-23T06:27:30.952Z,2.20
2018-06-23T06:32:34.644Z,2.33
2018-06-23T06:37:38.335Z,2.20
2018-06-23T06:42:42.052Z,2.40
2018-06-23T06:47:46.235Z,2.20
2018-06-23T06:52:49.919Z,2.30
2018-06-23T06:58:01.040Z,2.50
2018-06-23T07:03:04.749Z,3.17
2018-06-23T07:08:08.620Z,2.53
2018-06-23T07:13:12.352Z,2.77
2018-06-23T07:18:16.452Z,2.60
2018-06-23T07:23:20.601Z,2.73
2018-06-23T07:28:26.929Z,2.97
2018-06-23T07:33:30.783Z,2.53
2018-06-23T07:38:34.471Z,2.70
2018-06-23T07:43:38.528Z,2.67
2018-06-23T07:48:42.665Z,2.70
2018-06-23T07:53:46.568Z,2.50
2018-06-23T07:58:53.310Z,2.70
2018-06-23T08:04:16.428Z,2.67
2018-06-23T08:09:20.195Z,2.80
2018-06-23T08:14:24.314Z,3.03
2018-06-23T08:19:28.733Z,2.57
2018-06-23T08:24:32.987Z,2.50
2018-06-23T08:29:43.046Z,2.70
2018-06-23T08:34:46.782Z,2.43
2018-06-23T08:39:50.626Z,2.77
2018-06-23T08:44:54.331Z,2.07
2018-06-23T08:49:58.276Z,2.70
2018-06-23T08:55:02.068Z,2.63
2018-06-23T09:00:06.381Z,2.40
2018-06-23T09:05:10.889Z,2.10
2018-06-23T09:10:16.287Z,3.60
2018-06-23T09:15:21.344Z,1.60
2018-06-23T09:20:25.492Z,2.30
2018-06-23T09:25:28.847Z,1.97
2018-06-23T09:30:35.162Z,2.70
2018-06-23T09:35:40.256Z,2.20
2018-06-23T09:40:44.389Z,2.20
2018-06-23T09:45:48.686Z,2.07
2018-06-23T09:50:52.961Z,4.40
2018-06-23T09:55:57.109Z,2.30
2018-06-23T10:01:01.008Z,2.53
2018-06-23T10:06:05.957Z,2.00
2018-06-23T10:11:09.718Z,2.00
2018-06-23T10:16:14.490Z,1.60
2018-06-23T10:21:18.728Z,1.60
2018-06-23T10:26:22.448Z,2.00
2018-06-23T10:31:26.385Z,1.70
2018-06-23T10:36:30.227Z,2.40
2018-06-23T10:41:37.296Z,2.00
2018-06-23T10:46:41.160Z,1.90
2018-06-23T10:52:01.545Z,1.70
2018-06-23T10:57:06.147Z,2.10
2018-06-23T11:02:10.168Z,1.70
2018-06-23T11:07:13.944Z,1.70
2018-06-23T11:12:17.633Z,1.37
2018-06-23T11:17:21.120Z,1.83
2018-06-23T11:22:25.402Z,1.97
2018-06-23T11:27:29.820Z,1.90
2018-06-23T11:32:34.229Z,1.40
2018-06-23T11:37:38.895Z,1.60
2018-06-23T11:42:43.952Z,1.70
2018-06-23T11:47:48.336Z,1.93
2018-06-23T11:52:52.912Z,1.83
2018-06-23T11:57:57.171Z,2.17
2018-06-23T12:03:01.764Z,2.20
2018-06-23T12:08:06.101Z,1.93
2018-06-23T12:13:10.369Z,2.33
2018-06-23T12:18:14.606Z,1.80
2018-06-23T12:23:19.013Z,1.70
2018-06-23T12:28:24.621Z,1.40
2018-06-23T12:33:30.193Z,4.10
2018-06-23T12:38:34.457Z,1.80
2018-06-23T12:43:38.603Z,1.90
2018-06-23T12:48:42.992Z,1.97
2018-06-23T12:53:47.391Z,1.87
2018-06-23T12:58:51.548Z,2.00
2018-06-23T13:03:56.029Z,2.17
2018-06-23T13:09:00.307Z,1.73
2018-06-23T13:14:04.801Z,2.23
2018-06-23T13:19:10.005Z,1.77
2018-06-23T13:24:14.245Z,1.57
2018-06-23T13:29:18.623Z,2.70
2018-06-23T13:34:22.608Z,1.80
2018-06-23T13:39:26.891Z,1.53
2018-06-23T13:44:31.235Z,1.50
2018-06-23T13:49:35.668Z,1.20
2018-06-23T13:54:39.746Z,1.80
2018-06-23T13:59:43.590Z,1.50
2018-06-23T14:04:47.279Z,1.53
2018-06-23T14:09:50.933Z,1.70
2018-06-23T14:14:54.706Z,1.30
2018-06-23T14:20:00.504Z,1.57
2018-06-23T14:25:04.338Z,1.70
2018-06-23T14:30:08.177Z,2.00
2018-06-23T14:35:13.144Z,1.70
2018-06-23T14:40:16.976Z,1.60
2018-06-23T14:45:21.216Z,1.90
2018-06-23T14:50:24.873Z,1.50
2018-06-23T14:55:28.708Z,1.70
2018-06-23T15:00:32.377Z,1.70
2018-06-23T15:05:36.472Z,1.70
2018-06-23T15:10:51.135Z,1.80
2018-06-23T15:15:54.814Z,1.53
2018-06-23T15:20:59.225Z,1.93
2018-06-23T15:26:03.087Z,1.70
2018-06-23T15:31:06.768Z,1.60
2018-06-23T15:36:10.525Z,1.40
2018-06-23T15:41:14.641Z,1.87
2018-06-23T15:46:18.319Z,2.60
2018-06-23T15:51:22.059Z,7.83
2018-06-23T15:56:26.097Z,8.07
2018-06-23T16:01:29.789Z,8.50
2018-06-23T16:06:33.593Z,6.10
2018-06-23T16:11:37.280Z,1.90
2018-06-23T16:16:40.963Z,1.43
2018-06-23T16:21:44.624Z,1.70
2018-06-23T16:26:48.493Z,2.40
2018-06-23T16:31:52.964Z,2.00
2018-06-23T16:36:56.640Z,1.67
2018-06-23T16:42:00.384Z,1.53
2018-06-23T16:47:04.440Z,4.43
2018-06-23T16:52:08.120Z,1.90
2018-06-23T16:57:13.169Z,1.60
2018-06-23T17:02:16.830Z,2.70
2018-06-23T17:07:20.515Z,1.83
2018-06-23T17:12:24.591Z,4.50
2018-06-23T17:17:28.291Z,3.80
2018-06-23T17:22:32.036Z,2.90
2018-06-23T17:27:35.763Z,2.10
2018-06-23T17:32:40.105Z,1.90
2018-06-23T17:37:43.780Z,1.70
2018-06-23T17:42:47.483Z,1.87
2018-06-23T17:47:51.185Z,2.47
2018-06-23T17:52:54.880Z,1.80
2018-06-23T17:57:58.772Z,1.80
2018-06-23T18:03:02.333Z,1.40
2018-06-23T18:08:06.816Z,1.93
2018-06-23T18:13:10.434Z,2.03
2018-06-23T18:18:14.087Z,1.60
2018-06-23T18:23:17.752Z,2.43
2018-06-23T18:28:21.448Z,1.80
2018-06-23T18:33:25.280Z,2.10
2018-06-23T18:38:28.955Z,2.10
2018-06-23T18:43:32.653Z,1.93
2018-06-23T18:48:36.287Z,3.07
2018-06-23T18:53:40.675Z,8.53
2018-06-23T18:58:44.583Z,2.47
2018-06-23T19:03:49.683Z,2.60
2018-06-23T19:08:53.400Z,2.53
2018-06-23T19:13:56.982Z,3.90
2018-06-23T19:19:00.978Z,4.60
2018-06-23T19:24:04.684Z,7.60
2018-06-23T19:29:08.835Z,3.43
2018-06-23T19:34:12.589Z,2.80
2018-06-23T19:39:16.236Z,2.77
2018-06-23T19:44:19.968Z,4.13
2018-06-23T19:49:25.664Z,2.60
2018-06-23T19:54:29.304Z,2.47
2018-06-23T19:59:32.950Z,2.63
2018-06-23T20:04:36.895Z,2.77
2018-06-23T20:09:40.527Z,3.23
2018-06-23T20:14:44.299Z,3.80
2018-06-23T20:19:50.935Z,2.83
2018-06-23T20:24:55.154Z,4.17
2018-06-23T20:29:59.784Z,3.70
2018-06-23T20:35:04.111Z,3.40
2018-06-23T20:40:08.922Z,4.10
2018-06-23T20:45:13.584Z,3.60
2018-06-23T20:50:17.371Z,3.20
2018-06-23T20:55:21.194Z,4.30
2018-06-23T21:00:25.910Z,3.30
2018-06-23T21:05:29.763Z,4.50
2018-06-23T21:10:44.925Z,3.30
2018-06-23T21:15:48.809Z,5.60
2018-06-23T21:20:52.756Z,3.90
2018-06-23T21:25:56.795Z,4.13
2018-06-23T21:31:00.918Z,4.33
2018-06-23T21:36:05.194Z,3.70
2018-06-23T21:41:08.880Z,6.60
2018-06-23T21:46:12.942Z,4.90
2018-06-23T21:51:16.736Z,3.87
2018-06-23T21:56:20.546Z,3.77
2018-06-23T22:01:24.414Z,3.80
2018-06-23T22:06:28.292Z,6.93
2018-06-23T22:11:32.291Z,5.17
2018-06-23T22:16:36.420Z,5.50
2018-06-23T22:21:40.300Z,4.77
2018-06-23T22:26:44.233Z,4.20
2018-06-23T22:31:49.212Z,4.13
2018-06-23T22:36:52.977Z,3.73
2018-06-23T22:41:56.661Z,3.60
2018-06-23T22:47:02.041Z,3.60
2018-06-23T22:52:06.776Z,4.80
2018-06-23T22:57:10.516Z,3.83
2018-06-23T23:02:14.979Z,5.70
2018-06-23T23:07:18.877Z,4.40
2018-06-23T23:12:22.753Z,4.30
2018-06-23T23:17:26.415Z,3.63
2018-06-23T23:22:30.441Z,3.40
2018-06-23T23:27:34.080Z,3.60
2018-06-23T23:32:37.822Z,3.90
2018-06-23T23:37:41.505Z,3.60
2018-06-23T23:42:45.170Z,3.67
2018-06-23T23:47:48.940Z,4.17
2018-06-23T23:52:52.584Z,3.50
2018-06-23T23:57:56.293Z,3.17
